createdAt,value
2023-05-19T00:00:16.367Z,22.32
2023-05-19T00:01:16.413Z,22.32
2023-05-19T00:02:16.544Z,22.31
2023-05-19T00:03:16.692Z,22.32
2023-05-19T00:04:16.621Z,22.32
2023-05-19T00:05:16.660Z,22.31
2023-05-19T00:06:16.890Z,22.31
2023-05-19T00:07:16.757Z,22.31
2023-05-19T00:08:16.823Z,22.31
2023-05-19T00:09:16.863Z,22.31
2023-05-19T00:10:16.932Z,22.30
2023-05-19T00:11:16.976Z,22.30
2023-05-19T00:12:17.050Z,22.30
2023-05-19T00:13:17.097Z,22.30
2023-05-19T00:14:17.164Z,22.29
2023-05-19T00:15:17.199Z,22.29
2023-05-19T00:16:17.288Z,22.30
2023-05-19T00:17:17.308Z,22.29
2023-05-19T00:18:17.357Z,22.29
2023-05-19T00:19:17.520Z,22.28
2023-05-19T00:20:17.424Z,22.28
2023-05-19T00:21:17.516Z,22.28
2023-05-19T00:22:17.534Z,22.28
2023-05-19T00:23:17.606Z,22.28
2023-05-19T00:24:17.632Z,22.28
2023-05-19T00:25:17.726Z,22.28
2023-05-19T00:26:17.786Z,22.28
2023-05-19T00:27:17.834Z,22.29
2023-05-19T00:28:17.912Z,22.28
2023-05-19T00:29:17.940Z,22.29
2023-05-19T00:30:18.033Z,22.28
2023-05-19T00:31:18.068Z,22.28
2023-05-19T00:32:18.141Z,22.27
2023-05-19T00:33:18.130Z,22.28
2023-05-19T00:34:18.174Z,22.27
2023-05-19T00:35:18.250Z,22.27
2023-05-19T00:36:18.289Z,22.27
2023-05-19T00:37:18.318Z,22.27
2023-05-19T00:38:18.381Z,22.28
2023-05-19T00:39:18.432Z,22.27
2023-05-19T00:40:18.477Z,22.28
2023-05-19T00:41:18.536Z,22.28
2023-05-19T00:42:18.552Z,22.27
2023-05-19T00:43:18.621Z,22.27
2023-05-19T00:44:18.643Z,22.27
2023-05-19T00:45:18.684Z,22.27
2023-05-19T00:46:18.792Z,22.27
2023-05-19T00:47:18.787Z,22.27
2023-05-19T00:48:18.816Z,22.26
2023-05-19T00:49:18.830Z,22.26
2023-05-19T00:50:18.862Z,22.26
2023-05-19T00:51:18.888Z,22.26
2023-05-19T00:52:18.954Z,22.26
2023-05-19T00:53:18.970Z,22.26
2023-05-19T00:54:19.003Z,22.26
2023-05-19T00:55:18.988Z,22.25
2023-05-19T00:56:19.025Z,22.25
2023-05-19T00:57:19.043Z,22.25
2023-05-19T00:58:19.077Z,22.25
2023-05-19T00:59:19.136Z,22.24
2023-05-19T01:00:19.155Z,22.26
2023-05-19T01:01:19.248Z,22.25
2023-05-19T01:02:19.215Z,22.24
2023-05-19T01:03:19.300Z,22.24
2023-05-19T01:04:19.250Z,22.24
2023-05-19T01:05:19.303Z,22.24
2023-05-19T01:06:19.453Z,22.25
2023-05-19T01:07:19.343Z,22.25
2023-05-19T01:08:19.347Z,22.25
2023-05-19T01:09:19.404Z,22.25
2023-05-19T01:10:19.414Z,22.25
2023-05-19T01:11:19.441Z,22.24
2023-05-19T01:12:19.428Z,22.24
2023-05-19T01:13:19.436Z,22.24
2023-05-19T01:14:19.473Z,22.24
2023-05-19T01:15:19.482Z,22.24
2023-05-19T01:16:19.501Z,22.24
2023-05-19T01:17:19.495Z,22.25
2023-05-19T01:18:19.499Z,22.25
2023-05-19T01:19:19.672Z,22.24
2023-05-19T01:20:19.588Z,22.25
2023-05-19T01:21:19.575Z,22.24
2023-05-19T01:22:19.589Z,22.25
2023-05-19T01:23:19.604Z,22.24
2023-05-19T01:24:19.613Z,22.24
2023-05-19T01:25:19.646Z,22.24
2023-05-19T01:26:19.660Z,22.24
2023-05-19T01:27:19.654Z,22.23
2023-05-19T01:28:19.664Z,22.23
2023-05-19T01:29:19.657Z,22.22
2023-05-19T01:30:19.644Z,22.23
2023-05-19T01:31:19.701Z,22.24
2023-05-19T01:32:19.651Z,22.24
2023-05-19T01:33:19.638Z,22.23
2023-05-19T01:34:19.641Z,22.23
2023-05-19T01:35:19.644Z,22.23
2023-05-19T01:36:19.682Z,22.24
2023-05-19T01:37:19.696Z,22.23
2023-05-19T01:38:19.736Z,22.23
2023-05-19T01:39:19.742Z,22.23
2023-05-19T01:40:19.731Z,22.23
2023-05-19T01:41:19.728Z,22.23
2023-05-19T01:42:19.734Z,22.23
2023-05-19T01:43:19.729Z,22.23
2023-05-19T01:44:19.729Z,22.23
2023-05-19T01:45:19.726Z,22.23
2023-05-19T01:46:19.762Z,22.23
2023-05-19T01:47:19.700Z,22.22
2023-05-19T01:48:19.736Z,22.22
2023-05-19T01:49:19.703Z,22.23
2023-05-19T01:50:19.730Z,22.22
2023-05-19T01:51:19.748Z,22.22
2023-05-19T01:52:19.766Z,22.22
2023-05-19T01:53:19.776Z,22.22
2023-05-19T01:54:19.793Z,22.22
2023-05-19T01:55:19.825Z,22.22
2023-05-19T01:56:19.835Z,22.21
2023-05-19T01:57:19.832Z,22.22
2023-05-19T01:58:19.873Z,22.22
2023-05-19T01:59:19.887Z,22.22
2023-05-19T02:00:21.350Z,22.22
2023-05-19T02:01:19.993Z,22.22
2023-05-19T02:02:19.979Z,22.21
2023-05-19T02:03:19.987Z,22.22
2023-05-19T02:04:20.010Z,22.21
2023-05-19T02:05:19.986Z,22.21
2023-05-19T02:06:20.047Z,22.22
2023-05-19T02:07:20.018Z,22.22
2023-05-19T02:08:20.031Z,22.22
2023-05-19T02:09:19.996Z,22.21
2023-05-19T02:10:20.000Z,22.21
2023-05-19T02:11:20.038Z,22.20
2023-05-19T02:12:20.032Z,22.21
2023-05-19T02:13:20.033Z,22.21
2023-05-19T02:14:20.036Z,22.22
2023-05-19T02:15:20.044Z,22.22
2023-05-19T02:16:20.126Z,22.21
2023-05-19T02:17:20.092Z,22.21
2023-05-19T02:18:20.078Z,22.21
2023-05-19T02:19:20.217Z,22.20
2023-05-19T02:20:20.106Z,22.20
2023-05-19T02:21:20.107Z,22.21
2023-05-19T02:22:20.124Z,22.21
2023-05-19T02:23:20.131Z,22.20
2023-05-19T02:24:20.146Z,22.20
2023-05-19T02:25:20.172Z,22.20
2023-05-19T02:26:20.162Z,22.20
2023-05-19T02:27:20.163Z,22.20
2023-05-19T02:28:20.158Z,22.20
2023-05-19T02:29:20.161Z,22.20
2023-05-19T02:30:20.156Z,22.20
2023-05-19T02:31:20.226Z,22.20
2023-05-19T02:32:20.186Z,22.19
2023-05-19T02:33:20.170Z,22.19
2023-05-19T02:34:20.155Z,22.20
2023-05-19T02:35:20.177Z,22.20
2023-05-19T02:36:20.152Z,22.20
2023-05-19T02:37:20.145Z,22.20
2023-05-19T02:38:20.165Z,22.19
2023-05-19T02:39:20.182Z,22.19
2023-05-19T02:40:20.157Z,22.19
2023-05-19T02:41:20.145Z,22.20
2023-05-19T02:42:20.141Z,22.20
2023-05-19T02:43:20.139Z,22.19
2023-05-19T02:44:20.143Z,22.20
2023-05-19T02:45:20.156Z,22.19
2023-05-19T02:46:20.196Z,22.19
2023-05-19T02:47:20.156Z,22.19
2023-05-19T02:48:20.143Z,22.19
2023-05-19T02:49:20.155Z,22.19
2023-05-19T02:50:20.166Z,22.19
2023-05-19T02:51:20.177Z,22.19
2023-05-19T02:52:20.155Z,22.19
2023-05-19T02:53:20.167Z,22.18
2023-05-19T02:54:20.154Z,22.18
2023-05-19T02:55:20.146Z,22.18
2023-05-19T02:56:20.159Z,22.18
2023-05-19T02:57:20.166Z,22.19
2023-05-19T02:58:20.140Z,22.18
2023-05-19T02:59:20.175Z,22.18
2023-05-19T03:00:20.161Z,22.18
2023-05-19T03:01:20.173Z,22.18
2023-05-19T03:02:20.165Z,22.19
2023-05-19T03:03:20.259Z,22.19
2023-05-19T03:04:20.159Z,22.18
2023-05-19T03:05:20.167Z,22.18
2023-05-19T03:06:20.174Z,22.18
2023-05-19T03:07:20.179Z,22.18
2023-05-19T03:08:20.176Z,22.18
2023-05-19T03:09:20.168Z,22.18
2023-05-19T03:10:20.167Z,22.18
2023-05-19T03:11:20.173Z,22.17
2023-05-19T03:12:20.177Z,22.18
2023-05-19T03:13:20.156Z,22.18
2023-05-19T03:14:20.154Z,22.17
2023-05-19T03:15:20.156Z,22.17
2023-05-19T03:16:20.206Z,22.16
2023-05-19T03:17:20.227Z,22.17
2023-05-19T03:18:20.198Z,22.16
2023-05-19T03:19:20.288Z,22.17
2023-05-19T03:20:20.187Z,22.16
2023-05-19T03:21:20.199Z,22.17
2023-05-19T03:22:20.201Z,22.17
2023-05-19T03:23:20.233Z,22.17
2023-05-19T03:24:20.247Z,22.17
2023-05-19T03:25:20.266Z,22.17
2023-05-19T03:26:20.263Z,22.17
2023-05-19T03:27:20.264Z,22.16
2023-05-19T03:28:20.264Z,22.16
2023-05-19T03:29:20.299Z,22.17
2023-05-19T03:30:20.298Z,22.16
2023-05-19T03:31:20.304Z,22.16
2023-05-19T03:32:20.331Z,22.16
2023-05-19T03:33:20.387Z,22.16
2023-05-19T03:34:20.283Z,22.16
2023-05-19T03:35:20.300Z,22.16
2023-05-19T03:36:20.292Z,22.16
2023-05-19T03:37:20.273Z,22.15
2023-05-19T03:38:20.281Z,22.15
2023-05-19T03:39:20.292Z,22.16
2023-05-19T03:40:20.274Z,22.16
2023-05-19T03:41:20.300Z,22.15
2023-05-19T03:42:20.283Z,22.16
2023-05-19T03:43:20.276Z,22.15
2023-05-19T03:44:20.268Z,22.16
2023-05-19T03:45:20.260Z,22.16
2023-05-19T03:46:20.385Z,22.15
2023-05-19T03:47:20.255Z,22.16
2023-05-19T03:48:21.391Z,22.16
2023-05-19T03:49:20.266Z,22.16
2023-05-19T03:50:20.265Z,22.15
2023-05-19T03:51:20.245Z,22.15
2023-05-19T03:52:20.251Z,22.15
2023-05-19T03:53:20.256Z,22.16
2023-05-19T03:54:20.240Z,22.15
2023-05-19T03:55:20.281Z,22.15
2023-05-19T03:56:20.228Z,22.15
2023-05-19T03:57:20.221Z,22.15
2023-05-19T03:58:20.219Z,22.15
2023-05-19T03:59:20.224Z,22.15
2023-05-19T04:00:20.219Z,22.16
2023-05-19T04:01:20.215Z,22.16
2023-05-19T04:02:20.211Z,22.16
2023-05-19T04:03:20.303Z,22.15
2023-05-19T04:04:20.219Z,22.15
2023-05-19T04:05:20.192Z,22.16
2023-05-19T04:06:20.185Z,22.15
2023-05-19T04:07:20.180Z,22.16
2023-05-19T04:08:20.161Z,22.16
2023-05-19T04:09:20.166Z,22.16
2023-05-19T04:10:20.170Z,22.16
2023-05-19T04:11:20.161Z,22.17
2023-05-19T04:12:20.159Z,22.18
2023-05-19T04:13:20.140Z,22.17
2023-05-19T04:14:20.144Z,22.18
2023-05-19T04:15:20.144Z,22.18
2023-05-19T04:16:20.186Z,22.17
2023-05-19T04:17:20.142Z,22.18
2023-05-19T04:18:20.138Z,22.17
2023-05-19T04:19:20.194Z,22.18
2023-05-19T04:20:20.127Z,22.17
2023-05-19T04:21:20.115Z,22.18
2023-05-19T04:22:20.105Z,22.18
2023-05-19T04:23:20.113Z,22.18
2023-05-19T04:24:20.120Z,22.18
2023-05-19T04:25:20.143Z,22.18
2023-05-19T04:26:20.123Z,22.18
2023-05-19T04:27:20.112Z,22.18
2023-05-19T04:28:20.137Z,22.18
2023-05-19T04:29:20.109Z,22.18
2023-05-19T04:30:20.097Z,22.19
2023-05-19T04:31:20.154Z,22.18
2023-05-19T04:32:20.114Z,22.19
2023-05-19T04:33:20.092Z,22.18
2023-05-19T04:34:20.194Z,22.18
2023-05-19T04:35:20.108Z,22.18
2023-05-19T04:36:20.066Z,22.19
2023-05-19T04:37:20.086Z,22.19
2023-05-19T04:38:20.102Z,22.19
2023-05-19T04:39:20.084Z,22.18
2023-05-19T04:40:20.079Z,22.19
2023-05-19T04:41:20.094Z,22.20
2023-05-19T04:42:20.108Z,22.20
2023-05-19T04:43:20.116Z,22.20
2023-05-19T04:44:20.117Z,22.20
2023-05-19T04:45:20.127Z,22.21
2023-05-19T04:46:20.171Z,22.21
2023-05-19T04:47:20.144Z,22.22
2023-05-19T04:48:20.154Z,22.21
2023-05-19T04:49:20.183Z,22.22
2023-05-19T04:50:20.195Z,22.23
2023-05-19T04:51:20.191Z,22.23
2023-05-19T04:52:20.260Z,22.25
2023-05-19T04:53:20.281Z,22.27
2023-05-19T04:54:20.326Z,22.30
2023-05-19T04:55:20.404Z,22.31
2023-05-19T04:56:20.461Z,22.35
2023-05-19T04:57:20.517Z,22.38
2023-05-19T04:58:20.586Z,22.39
2023-05-19T04:59:20.639Z,22.41
2023-05-19T05:00:20.693Z,22.42
2023-05-19T05:01:20.785Z,22.42
2023-05-19T05:02:20.902Z,22.40
2023-05-19T05:03:20.933Z,22.39
2023-05-19T05:04:20.898Z,22.38
2023-05-19T05:05:20.966Z,22.38
2023-05-19T05:06:21.022Z,22.37
2023-05-19T05:07:21.088Z,22.37
2023-05-19T05:08:21.137Z,22.36
2023-05-19T05:09:21.214Z,22.36
2023-05-19T05:10:21.258Z,22.36
2023-05-19T05:11:21.346Z,22.35
2023-05-19T05:12:21.388Z,22.36
2023-05-19T05:13:21.462Z,22.35
2023-05-19T05:14:21.531Z,22.36
2023-05-19T05:15:21.609Z,22.35
2023-05-19T05:16:21.662Z,22.35
2023-05-19T05:17:21.707Z,22.36
2023-05-19T05:18:21.770Z,22.35
2023-05-19T05:19:21.852Z,22.35
2023-05-19T05:20:21.873Z,22.36
2023-05-19T05:21:21.980Z,22.35
2023-05-19T05:22:22.023Z,22.35
2023-05-19T05:23:22.070Z,22.34
2023-05-19T05:24:22.155Z,22.34
2023-05-19T05:25:22.192Z,22.34
2023-05-19T05:26:22.269Z,22.34
2023-05-19T05:27:22.338Z,22.33
2023-05-19T05:28:22.396Z,22.33
2023-05-19T05:29:22.425Z,22.33
2023-05-19T05:30:22.499Z,22.33
2023-05-19T05:31:22.545Z,22.34
2023-05-19T05:32:22.694Z,22.33
2023-05-19T05:33:22.754Z,22.34
2023-05-19T05:34:22.648Z,22.34
2023-05-19T05:35:22.695Z,22.34
2023-05-19T05:36:22.772Z,22.34
2023-05-19T05:37:22.811Z,22.34
2023-05-19T05:38:22.871Z,22.35
2023-05-19T05:39:23.061Z,22.36
2023-05-19T05:40:23.006Z,22.37
2023-05-19T05:41:23.050Z,22.38
2023-05-19T05:42:23.107Z,22.38
2023-05-19T05:43:23.163Z,22.38
2023-05-19T05:44:23.217Z,22.39
2023-05-19T05:45:23.276Z,22.39
2023-05-19T05:46:23.408Z,22.39
2023-05-19T05:47:23.373Z,22.40
2023-05-19T05:48:23.434Z,22.40
2023-05-19T05:49:23.508Z,22.40
2023-05-19T05:50:23.566Z,22.39
2023-05-19T05:51:23.631Z,22.40
2023-05-19T05:52:23.668Z,22.40
2023-05-19T05:53:23.722Z,22.41
2023-05-19T05:54:23.786Z,22.41
2023-05-19T05:55:23.834Z,22.41
2023-05-19T05:56:23.891Z,22.42
2023-05-19T05:57:23.950Z,22.43
2023-05-19T05:58:23.975Z,22.44
2023-05-19T05:59:24.043Z,22.44
2023-05-19T06:00:24.097Z,22.44
2023-05-19T06:01:24.183Z,22.45
2023-05-19T06:02:24.229Z,22.45
2023-05-19T06:03:24.554Z,22.45
2023-05-19T06:04:24.299Z,22.45
2023-05-19T06:05:24.430Z,22.45
2023-05-19T06:06:24.409Z,22.45
2023-05-19T06:07:24.470Z,22.46
2023-05-19T06:08:24.486Z,22.45
2023-05-19T06:09:24.539Z,22.46
2023-05-19T06:10:24.615Z,22.46
2023-05-19T06:11:24.659Z,22.46
2023-05-19T06:12:24.700Z,22.46
2023-05-19T06:13:24.780Z,22.46
2023-05-19T06:14:24.807Z,22.46
2023-05-19T06:15:24.862Z,22.47
2023-05-19T06:16:24.975Z,22.47
2023-05-19T06:17:24.973Z,22.48
2023-05-19T06:18:25.005Z,22.48
2023-05-19T06:19:25.323Z,22.50
2023-05-19T06:20:25.110Z,22.51
2023-05-19T06:21:25.160Z,22.52
2023-05-19T06:22:25.189Z,22.53
2023-05-19T06:23:25.244Z,22.54
2023-05-19T06:24:25.255Z,22.54
2023-05-19T06:25:25.297Z,22.55
2023-05-19T06:26:25.332Z,22.56
2023-05-19T06:27:25.390Z,22.56
2023-05-19T06:28:25.408Z,22.56
2023-05-19T06:29:25.457Z,22.57
2023-05-19T06:30:25.502Z,22.57
2023-05-19T06:31:25.573Z,22.57
2023-05-19T06:32:25.580Z,22.57
2023-05-19T06:33:28.850Z,22.58
2023-05-19T06:34:25.600Z,22.59
2023-05-19T06:35:25.597Z,22.59
2023-05-19T06:36:25.571Z,22.58
2023-05-19T06:37:25.564Z,22.60
2023-05-19T06:38:25.553Z,22.61
2023-05-19T06:39:25.565Z,22.61
2023-05-19T06:40:25.568Z,22.61
2023-05-19T06:41:25.556Z,22.62
2023-05-19T06:42:25.581Z,22.63
2023-05-19T06:43:25.519Z,22.64
2023-05-19T06:44:25.530Z,22.65
2023-05-19T06:45:25.526Z,22.66
2023-05-19T06:46:25.599Z,22.66
2023-05-19T06:47:25.559Z,22.66
2023-05-19T06:48:25.493Z,22.66
2023-05-19T06:49:25.488Z,22.67
2023-05-19T06:50:25.490Z,22.68
2023-05-19T06:51:25.475Z,22.68
2023-05-19T06:52:25.453Z,22.69
2023-05-19T06:53:25.450Z,22.68
2023-05-19T06:54:25.434Z,22.69
2023-05-19T06:55:25.433Z,22.69
2023-05-19T06:56:25.447Z,22.69
2023-05-19T06:57:25.433Z,22.69
2023-05-19T06:58:25.431Z,22.69
2023-05-19T06:59:25.434Z,22.69
2023-05-19T07:00:25.400Z,22.69
2023-05-19T07:01:25.405Z,22.69
2023-05-19T07:02:25.486Z,22.69
2023-05-19T07:03:25.520Z,22.70
2023-05-19T07:04:25.372Z,22.69
2023-05-19T07:05:25.371Z,22.69
2023-05-19T07:06:25.375Z,22.70
2023-05-19T07:07:25.358Z,22.70
2023-05-19T07:08:25.364Z,22.70
2023-05-19T07:09:25.341Z,22.71
2023-05-19T07:10:25.350Z,22.72
2023-05-19T07:11:25.358Z,22.71
2023-05-19T07:12:25.330Z,22.72
2023-05-19T07:13:27.357Z,22.73
2023-05-19T07:14:25.328Z,22.74
2023-05-19T07:15:25.309Z,22.74
2023-05-19T07:16:25.395Z,22.74
2023-05-19T07:17:25.350Z,22.75
2023-05-19T07:18:25.309Z,22.76
2023-05-19T07:19:25.387Z,22.76
2023-05-19T07:20:25.292Z,22.77
2023-05-19T07:21:25.306Z,22.76
2023-05-19T07:22:25.327Z,22.76
2023-05-19T07:23:25.356Z,22.77
2023-05-19T07:24:25.369Z,22.77
2023-05-19T07:25:25.386Z,22.77
2023-05-19T07:26:25.404Z,22.77
2023-05-19T07:27:25.469Z,22.78
2023-05-19T07:28:25.446Z,22.78
2023-05-19T07:29:25.441Z,22.79
2023-05-19T07:30:25.518Z,22.78
2023-05-19T07:31:25.579Z,22.79
2023-05-19T07:32:25.590Z,22.79
2023-05-19T07:33:25.501Z,22.80
2023-05-19T07:34:25.533Z,22.81
2023-05-19T07:35:25.519Z,22.82
2023-05-19T07:36:25.551Z,22.83
2023-05-19T07:37:25.553Z,22.84
2023-05-19T07:38:25.553Z,22.84
2023-05-19T07:39:25.611Z,22.85
2023-05-19T07:40:25.604Z,22.85
2023-05-19T07:41:25.600Z,22.86
2023-05-19T07:42:25.592Z,22.87
2023-05-19T07:43:25.610Z,22.87
2023-05-19T07:44:25.623Z,22.88
2023-05-19T07:45:25.623Z,22.89
2023-05-19T07:46:25.758Z,22.89
2023-05-19T07:47:25.979Z,22.90
2023-05-19T07:48:25.699Z,22.91
2023-05-19T07:49:25.670Z,22.91
2023-05-19T07:50:25.688Z,22.92
2023-05-19T07:51:25.680Z,22.93
2023-05-19T07:52:25.699Z,22.94
2023-05-19T07:53:25.719Z,22.96
2023-05-19T07:54:25.724Z,22.98
2023-05-19T07:55:25.745Z,22.99
2023-05-19T07:56:25.783Z,23.01
2023-05-19T07:57:25.764Z,23.01
2023-05-19T07:58:25.790Z,23.02
2023-05-19T07:59:25.802Z,23.04
2023-05-19T08:00:25.792Z,23.06
2023-05-19T08:01:25.820Z,23.07
2023-05-19T08:02:25.926Z,23.08
2023-05-19T08:03:25.968Z,23.09
2023-05-19T08:04:25.865Z,23.12
2023-05-19T08:05:25.853Z,23.13
2023-05-19T08:06:25.840Z,23.14
2023-05-19T08:07:25.869Z,23.17
2023-05-19T08:08:25.876Z,23.17
2023-05-19T08:09:25.889Z,23.18
2023-05-19T08:10:25.898Z,23.19
2023-05-19T08:11:25.873Z,23.21
2023-05-19T08:12:25.902Z,23.24
2023-05-19T08:13:25.890Z,23.25
2023-05-19T08:14:25.899Z,23.27
2023-05-19T08:15:25.933Z,23.29
2023-05-19T08:16:25.933Z,23.30
2023-05-19T08:17:25.943Z,23.30
2023-05-19T08:18:25.880Z,23.31
2023-05-19T08:19:25.914Z,23.34
2023-05-19T08:20:25.883Z,23.36
2023-05-19T08:21:25.898Z,23.38
2023-05-19T08:22:25.940Z,23.39
2023-05-19T08:23:25.985Z,23.40
2023-05-19T08:24:25.987Z,23.38
2023-05-19T08:25:25.984Z,23.37
2023-05-19T08:26:25.982Z,23.36
2023-05-19T08:27:25.976Z,23.36
2023-05-19T08:28:25.972Z,23.36
2023-05-19T08:29:25.976Z,23.34
2023-05-19T08:30:25.983Z,23.33
2023-05-19T08:31:26.021Z,23.33
2023-05-19T08:32:26.023Z,23.33
2023-05-19T08:33:25.977Z,23.33
2023-05-19T08:34:25.971Z,23.34
2023-05-19T08:35:25.960Z,23.34
2023-05-19T08:36:25.972Z,23.33
2023-05-19T08:37:25.965Z,23.31
2023-05-19T08:38:25.977Z,23.29
2023-05-19T08:39:25.968Z,23.28
2023-05-19T08:40:25.974Z,23.25
2023-05-19T08:41:25.985Z,23.23
2023-05-19T08:42:25.995Z,23.22
2023-05-19T08:43:26.019Z,23.20
2023-05-19T08:44:26.005Z,23.19
2023-05-19T08:45:26.016Z,23.18
2023-05-19T08:46:26.138Z,23.17
2023-05-19T08:47:26.047Z,23.15
2023-05-19T08:48:26.068Z,23.15
2023-05-19T08:49:26.053Z,23.14
2023-05-19T08:50:26.048Z,23.13
2023-05-19T08:51:26.080Z,23.13
2023-05-19T08:52:26.092Z,23.12
2023-05-19T08:54:27.081Z,23.10
2023-05-19T08:55:26.080Z,23.09
2023-05-19T08:56:26.076Z,23.09
2023-05-19T08:57:26.071Z,23.08
2023-05-19T08:58:26.879Z,23.08
2023-05-19T08:59:26.150Z,23.08
2023-05-19T09:00:26.166Z,23.08
2023-05-19T09:01:26.201Z,23.08
2023-05-19T09:02:26.192Z,23.07
2023-05-19T09:03:26.296Z,23.07
2023-05-19T09:04:27.693Z,23.08
2023-05-19T09:05:26.236Z,23.10
2023-05-19T09:06:26.188Z,23.12
2023-05-19T09:07:26.178Z,23.13
2023-05-19T09:08:26.166Z,23.15
2023-05-19T09:09:26.180Z,23.16
2023-05-19T09:10:27.168Z,23.18
2023-05-19T09:11:26.158Z,23.19
2023-05-19T09:12:26.144Z,23.20
2023-05-19T09:13:26.162Z,23.22
2023-05-19T09:14:26.224Z,23.23
2023-05-19T09:15:26.300Z,23.25
2023-05-19T09:16:27.899Z,23.27
2023-05-19T09:17:26.363Z,23.29
2023-05-19T09:18:26.282Z,23.31
2023-05-19T09:19:26.351Z,23.34
2023-05-19T09:20:26.272Z,23.36
2023-05-19T09:21:26.244Z,23.37
2023-05-19T09:22:26.240Z,23.39
2023-05-19T09:23:26.231Z,23.40
2023-05-19T09:24:26.284Z,23.42
2023-05-19T09:25:26.231Z,23.44
2023-05-19T09:26:26.212Z,23.44
2023-05-19T09:27:26.203Z,23.46
2023-05-19T09:28:26.216Z,23.47
2023-05-19T09:29:26.187Z,23.48
2023-05-19T09:30:26.209Z,23.50
2023-05-19T09:31:26.193Z,23.52
2023-05-19T09:32:26.323Z,23.52
2023-05-19T09:33:26.159Z,23.52
2023-05-19T09:34:26.177Z,23.53
2023-05-19T09:35:26.145Z,23.55
2023-05-19T09:36:26.154Z,23.56
2023-05-19T09:37:26.149Z,23.57
2023-05-19T09:38:26.149Z,23.58
2023-05-19T09:39:26.338Z,23.59
2023-05-19T09:40:26.140Z,23.59
2023-05-19T09:41:26.118Z,23.61
2023-05-19T09:42:26.116Z,23.60
2023-05-19T09:43:26.108Z,23.61
2023-05-19T09:44:26.102Z,23.62
2023-05-19T09:45:26.085Z,23.63
2023-05-19T09:46:26.122Z,23.65
2023-05-19T09:47:26.175Z,23.66
2023-05-19T09:48:26.151Z,23.67
2023-05-19T09:49:26.222Z,23.69
2023-05-19T09:50:26.258Z,23.69
2023-05-19T09:51:26.318Z,23.69
2023-05-19T09:52:26.406Z,23.66
2023-05-19T09:53:26.460Z,23.65
2023-05-19T09:54:26.499Z,23.64
2023-05-19T09:55:26.591Z,23.62
2023-05-19T09:56:26.638Z,23.61
2023-05-19T09:57:26.690Z,23.59
2023-05-19T09:58:26.753Z,23.57
2023-05-19T09:59:27.551Z,23.55
2023-05-19T10:00:26.854Z,23.54
2023-05-19T10:01:26.995Z,23.53
2023-05-19T10:02:27.027Z,23.51
2023-05-19T10:03:27.015Z,23.49
2023-05-19T10:04:27.135Z,23.47
2023-05-19T10:05:27.164Z,23.45
2023-05-19T10:06:27.176Z,23.44
2023-05-19T10:07:27.199Z,23.42
2023-05-19T10:08:27.208Z,23.42
2023-05-19T10:09:27.268Z,23.41
2023-05-19T10:10:27.284Z,23.40
2023-05-19T10:11:27.322Z,23.38
2023-05-19T10:12:27.326Z,23.37
2023-05-19T10:13:27.350Z,23.37
2023-05-19T10:14:27.394Z,23.37
2023-05-19T10:15:27.403Z,23.35
2023-05-19T10:16:27.455Z,23.35
2023-05-19T10:17:27.467Z,23.34
2023-05-19T10:18:27.451Z,23.33
2023-05-19T10:19:27.639Z,23.33
2023-05-19T10:20:27.498Z,23.32
2023-05-19T10:21:27.512Z,23.31
2023-05-19T10:22:27.530Z,23.31
2023-05-19T10:23:27.553Z,23.31
2023-05-19T10:24:27.560Z,23.31
2023-05-19T10:25:27.560Z,23.30
2023-05-19T10:26:27.550Z,23.29
2023-05-19T10:27:27.543Z,23.29
2023-05-19T10:28:27.539Z,23.29
2023-05-19T10:29:27.540Z,23.29
2023-05-19T10:30:27.538Z,23.29
2023-05-19T10:31:27.577Z,23.28
2023-05-19T10:32:27.669Z,23.29
2023-05-19T10:33:27.552Z,23.28
2023-05-19T10:34:27.535Z,23.27
2023-05-19T10:35:27.543Z,23.27
2023-05-19T10:36:27.534Z,23.28
2023-05-19T10:37:27.544Z,23.30
2023-05-19T10:38:27.561Z,23.31
2023-05-19T10:39:27.587Z,23.31
2023-05-19T10:40:27.613Z,23.32
2023-05-19T10:41:27.653Z,23.32
2023-05-19T10:42:27.680Z,23.33
2023-05-19T10:43:27.699Z,23.34
2023-05-19T10:44:27.742Z,23.35
2023-05-19T10:45:27.791Z,23.35
2023-05-19T10:46:27.874Z,23.36
2023-05-19T10:47:27.948Z,23.36
2023-05-19T10:48:27.937Z,23.37
2023-05-19T10:49:28.010Z,23.37
2023-05-19T10:50:28.069Z,23.38
2023-05-19T10:51:28.119Z,23.39
2023-05-19T10:52:28.185Z,23.40
2023-05-19T10:53:28.217Z,23.40
2023-05-19T10:54:28.311Z,23.41
2023-05-19T10:55:28.353Z,23.42
2023-05-19T10:56:28.402Z,23.43
2023-05-19T10:57:28.519Z,23.43
2023-05-19T10:58:28.535Z,23.45
2023-05-19T10:59:29.628Z,23.45
2023-05-19T11:00:28.667Z,23.46
2023-05-19T11:01:28.747Z,23.47
2023-05-19T11:02:28.835Z,23.48
2023-05-19T11:03:29.044Z,23.49
2023-05-19T11:04:28.937Z,23.49
2023-05-19T11:05:28.965Z,23.50
2023-05-19T11:06:29.050Z,23.52
2023-05-19T11:07:29.086Z,23.52
2023-05-19T11:08:29.145Z,23.52
2023-05-19T11:09:39.737Z,23.53
2023-05-19T11:10:30.206Z,23.53
2023-05-19T11:11:29.194Z,23.55
2023-05-19T11:12:29.197Z,23.56
2023-05-19T11:13:29.182Z,23.57
2023-05-19T11:14:29.167Z,23.58
2023-05-19T11:15:29.217Z,23.59
2023-05-19T11:16:29.161Z,23.60
2023-05-19T11:17:29.234Z,23.61
2023-05-19T11:18:29.135Z,23.59
2023-05-19T11:19:29.163Z,23.58
2023-05-19T11:20:29.143Z,23.57
2023-05-19T11:21:29.297Z,23.57
2023-05-19T11:22:29.271Z,23.55
2023-05-19T11:23:29.382Z,23.55
2023-05-19T11:24:29.369Z,23.53
2023-05-19T11:25:29.450Z,23.52
2023-05-19T11:26:29.507Z,23.51
2023-05-19T11:27:29.577Z,23.51
2023-05-19T11:28:29.609Z,23.49
2023-05-19T11:29:29.685Z,23.48
2023-05-19T11:30:29.730Z,23.48
2023-05-19T11:31:29.861Z,23.47
2023-05-19T11:32:29.994Z,23.46
2023-05-19T11:33:29.924Z,23.45
2023-05-19T11:34:29.964Z,23.45
2023-05-19T11:35:30.114Z,23.45
2023-05-19T11:36:30.097Z,23.44
2023-05-19T11:37:30.183Z,23.43
2023-05-19T11:38:30.469Z,23.43
2023-05-19T11:39:30.293Z,23.43
2023-05-19T11:40:30.331Z,23.42
2023-05-19T11:41:30.385Z,23.41
2023-05-19T11:42:30.410Z,23.41
2023-05-19T11:43:30.476Z,23.40
2023-05-19T11:44:30.502Z,23.41
2023-05-19T11:45:30.560Z,23.40
2023-05-19T11:46:30.606Z,23.39
2023-05-19T11:47:33.986Z,23.39
2023-05-19T11:48:31.643Z,23.38
2023-05-19T11:49:30.584Z,23.38
2023-05-19T11:50:30.604Z,23.38
2023-05-19T11:51:30.576Z,23.37
2023-05-19T11:52:30.572Z,23.37
2023-05-19T11:53:30.927Z,23.37
2023-05-19T11:54:30.543Z,23.37
2023-05-19T11:55:30.562Z,23.36
2023-05-19T11:56:30.533Z,23.36
2023-05-19T11:57:30.518Z,23.35
2023-05-19T11:58:30.524Z,23.35
2023-05-19T11:59:30.950Z,23.35
2023-05-19T12:00:30.513Z,23.35
2023-05-19T12:01:30.493Z,23.35
2023-05-19T12:02:30.563Z,23.35
2023-05-19T12:03:30.583Z,23.37
2023-05-19T12:04:30.519Z,23.37
2023-05-19T12:05:30.653Z,23.38
2023-05-19T12:06:30.550Z,23.38
2023-05-19T12:07:30.552Z,23.39
2023-05-19T12:08:30.571Z,23.40
2023-05-19T12:09:30.598Z,23.40
2023-05-19T12:10:30.624Z,23.40
2023-05-19T12:11:30.669Z,23.41
2023-05-19T12:12:30.717Z,23.42
2023-05-19T12:13:30.785Z,23.43
2023-05-19T12:14:30.827Z,23.42
2023-05-19T12:15:31.101Z,23.43
2023-05-19T12:16:31.895Z,23.44
2023-05-19T12:17:31.045Z,23.44
2023-05-19T12:18:31.052Z,23.45
2023-05-19T12:19:31.192Z,23.46
2023-05-19T12:20:31.184Z,23.46
2023-05-19T12:21:34.322Z,23.47
2023-05-19T12:22:31.256Z,23.47
2023-05-19T12:23:31.235Z,23.47
2023-05-19T12:24:31.231Z,23.47
2023-05-19T12:25:31.575Z,23.49
2023-05-19T12:26:31.224Z,23.49
2023-05-19T12:27:33.043Z,23.49
2023-05-19T12:28:31.215Z,23.49
2023-05-19T12:29:31.189Z,23.50
2023-05-19T12:30:31.697Z,23.50
2023-05-19T12:31:31.250Z,23.51
2023-05-19T12:32:31.202Z,23.51
2023-05-19T12:33:32.508Z,23.52
2023-05-19T12:34:31.158Z,23.52
2023-05-19T12:35:31.155Z,23.52
2023-05-19T12:36:31.194Z,23.52
2023-05-19T12:37:31.264Z,23.54
2023-05-19T12:38:31.299Z,23.53
2023-05-19T12:39:31.363Z,23.54
2023-05-19T12:40:31.707Z,23.55
2023-05-19T12:41:31.486Z,23.55
2023-05-19T12:42:31.633Z,23.55
2023-05-19T12:43:31.589Z,23.56
2023-05-19T12:44:31.658Z,23.56
2023-05-19T12:45:31.733Z,23.56
2023-05-19T12:46:31.790Z,23.56
2023-05-19T12:47:31.895Z,23.57
2023-05-19T12:48:31.866Z,23.57
2023-05-19T12:49:31.916Z,23.58
2023-05-19T12:50:32.072Z,23.58
2023-05-19T12:51:32.024Z,23.59
2023-05-19T12:52:32.075Z,23.59
2023-05-19T12:53:32.157Z,23.59